Time,TemperatureF,DewpointF,PressureIn,WindDirection,WindDirectionDegrees,WindSpeedMPH,WindSpeedGustMPH,Humidity,HourlyPrecipIn,Conditions,Clouds,dailyrainin,SoftwareType,DateUTC
2013-03-07 00:00:00,40.0,34.3,30.32,NW,308,0.0,0.0,80,0.00,CLR,,0.00,WeatherDisplay:10.37,2013-03-07 06:00:00,
2013-03-07 00:05:00,40.0,34.3,30.32,NW,319,3.5,3.5,80,0.00,CLR,,0.00,WeatherDisplay:10.37,2013-03-07 06:05:00,
2013-03-07 00:10:00,39.8,34.1,30.32,NW,319,0.0,0.0,80,0.00,CLR,,0.00,WeatherDisplay:10.37,2013-03-07 06:10:00,
2013-03-07 00:15:00,39.6,33.9,30.32,NW,319,0.0,0.0,80,0.00,CLR,,0.00,WeatherDisplay:10.37,2013-03-07 06:15:00,
2013-03-07 00:20:00,39.5,34.2,30.32,NW,319,0.0,0.0,81,0.00,CLR,,0.00,WeatherDisplay:10.37,2013-03-07 06:20:00,
2013-03-07 00:25:00,39.6,34.2,30.33,NW,319,0.0,0.0,81,0.00,CLR,,0.00,WeatherDisplay:10.37,2013-03-07 06:25:00,
2013-03-07 00:30:00,39.4,34.4,30.33,NW,319,0.0,0.0,82,0.00,CLR,,0.00,WeatherDisplay:10.37,2013-03-07 06:30:00,
2013-03-07 00:35:00,39.2,34.5,30.33,NW,319,0.0,0.0,83,0.00,CLR,,0.00,WeatherDisplay:10.37,2013-03-07 06:35:00,
2013-03-07 00:40:00,38.7,34.3,30.33,NW,319,0.0,0.0,84,0.00,CLR,,0.00,WeatherDisplay:10.37,2013-03-07 06:40:00,
2013-03-07 00:45:00,38.6,34.2,30.33,NW,319,0.0,0.0,84,0.00,CLR,,0.00,WeatherDisplay:10.37,2013-03-07 06:45:00,
2013-03-07 00:50:00,38.5,34.4,30.33,NW,319,0.0,0.0,85,0.00,CLR,,0.00,WeatherDisplay:10.37,2013-03-07 06:50:00,
2013-03-07 00:55:00,38.5,34.4,30.33,NW,319,0.0,0.0,85,0.00,CLR,,0.00,WeatherDisplay:10.37,2013-03-07 06:55:00,
2013-03-07 01:00:00,38.4,34.6,30.33,NW,319,0.0,0.0,86,0.00,CLR,,0.00,WeatherDisplay:10.37,2013-03-07 07:00:00,
2013-03-07 01:05:00,38.3,34.2,30.33,NW,319,0.0,0.0,85,0.00,CLR,,0.00,WeatherDisplay:10.37,2013-03-07 07:05:00,
2013-03-07 01:10:00,38.3,33.9,30.32,NW,319,0.0,0.0,84,0.00,CLR,,0.00,WeatherDisplay:10.37,2013-03-07 07:10:00,
2013-03-07 01:15:00,38.3,33.9,30.32,NW,319,0.0,0.0,84,0.00,CLR,,0.00,WeatherDisplay:10.37,2013-03-07 07:15:00,
2013-03-07 01:20:00,38.2,34.1,30.32,NW,319,0.0,0.0,85,0.00,CLR,,0.00,WeatherDisplay:10.37,2013-03-07 07:20:00,
2013-03-07 01:25:00,38.1,34.0,30.32,NW,319,0.0,0.0,85,0.00,CLR,,0.00,WeatherDisplay:10.37,2013-03-07 07:25:00,
2013-03-07 01:30:00,38.0,34.2,30.32,NW,319,0.0,0.0,86,0.00,CLR,,0.00,WeatherDisplay:10.37,2013-03-07 07:30:00,
2013-03-07 01:35:00,37.7,33.9,30.32,North,360,2.3,0.0,86,0.00,CLR,,0.00,WeatherDisplay:10.37,2013-03-07 07:35:00,
2013-03-07 01:40:00,37.8,34.0,30.31,North,360,0.0,0.0,86,0.00,CLR,,0.00,WeatherDisplay:10.37,2013-03-07 07:40:00,
2013-03-07 01:46:00,37.6,33.8,30.31,North,360,0.0,0.0,86,0.00,CLR,,0.00,WeatherDisplay:10.37,2013-03-07 07:46:00,
2013-03-07 01:51:00,37.4,33.6,30.31,North,360,0.0,0.0,86,0.00,CLR,,0.00,WeatherDisplay:10.37,2013-03-07 07:51:00,
2013-03-07 01:56:00,37.4,33.9,30.32,North,360,0.0,0.0,87,0.00,CLR,,0.00,WeatherDisplay:10.37,2013-03-07 07:56:00,
2013-03-07 02:01:00,37.3,34.1,30.32,NW,319,2.5,2.5,88,0.00,CLR,,0.00,WeatherDisplay:10.37,2013-03-07 08:01:00,
2013-03-07 02:06:00,37.2,34.0,30.32,NW,306,3.5,3.5,88,0.00,CLR,,0.00,WeatherDisplay:10.37,2013-03-07 08:06:00,
2013-03-07 02:11:00,37.2,34.0,30.32,WNW,291,0.0,0.0,88,0.00,CLR,,0.00,WeatherDisplay:10.37,2013-03-07 08:11:00,
2013-03-07 02:16:00,37.1,33.9,30.32,WNW,291,0.0,0.0,88,0.00,CLR,,0.00,WeatherDisplay:10.37,2013-03-07 08:16:00,
2013-03-07 02:21:00,36.7,34.0,30.32,NW,319,4.1,4.1,90,0.00,CLR,,0.00,WeatherDisplay:10.37,2013-03-07 08:21:00,
2013-03-07 02:26:00,36.8,34.1,30.32,NNW,337,5.8,5.8,90,0.00,CLR,,0.00,WeatherDisplay:10.37,2013-03-07 08:26:00,
2013-03-07 02:31:00,36.7,34.0,30.32,NW,316,4.6,4.6,90,0.00,CLR,,0.00,WeatherDisplay:10.37,2013-03-07 08:31:00,
2013-03-07 02:37:00,37.0,34.1,30.32,WNW,295,6.9,6.9,89,0.00,CLR,,0.00,WeatherDisplay:10.37,2013-03-07 08:37:00,
2013-03-07 02:42:00,37.0,34.1,30.32,NNW,342,6.2,6.2,89,0.00,CLR,,0.00,WeatherDisplay:10.37,2013-03-07 08:42:00,
2013-03-07 02:47:00,37.2,34.0,30.32,North,356,4.6,4.6,88,0.00,CLR,,0.00,WeatherDisplay:10.37,2013-03-07 08:47:00,
2013-03-07 02:52:00,37.2,34.0,30.32,NNW,332,4.6,4.6,88,0.00,CLR,,0.00,WeatherDisplay:10.37,2013-03-07 08:52:00,
2013-03-07 02:57:00,37.1,33.9,30.32,North,349,5.8,5.8,88,0.00,CLR,,0.00,WeatherDisplay:10.37,2013-03-07 08:57:00,
2013-03-07 03:02:00,37.0,33.8,30.32,NNE,30,4.6,4.6,88,0.00,CLR,,0.00,WeatherDisplay:10.37,2013-03-07 09:02:00,
2013-03-07 03:07:00,36.9,33.7,30.32,NNW,343,3.4,3.4,88,0.00,CLR,,0.00,WeatherDisplay:10.37,2013-03-07 09:07:00,
2013-03-07 03:12:00,36.9,33.7,30.31,North,359,4.6,4.6,88,0.00,CLR,,0.00,WeatherDisplay:10.37,2013-03-07 09:12:00,
2013-03-07 03:17:00,36.6,33.4,30.31,North,360,4.6,4.6,88,0.00,CLR,,0.00,WeatherDisplay:10.37,2013-03-07 09:17:00,
2013-03-07 03:22:00,36.5,33.3,30.32,North,3,3.5,3.5,88,0.00,CLR,,0.00,WeatherDisplay:10.37,2013-03-07 09:22:00,
2013-03-07 03:27:00,36.3,33.4,30.32,NW,309,2.3,2.3,89,0.00,CLR,,0.00,WeatherDisplay:10.37,2013-03-07 09:27:00,
2013-03-07 03:32:00,36.2,33.5,30.32,NNW,329,3.5,3.5,90,0.00,CLR,,0.00,WeatherDisplay:10.37,2013-03-07 09:32:00,
2013-03-07 03:37:00,36.1,33.5,30.32,North,357,3.7,3.7,90,0.00,CLR,,0.00,WeatherDisplay:10.37,2013-03-07 09:37:00,
2013-03-07 03:42:00,35.8,33.2,30.32,North,353,3.5,3.5,90,0.00,CLR,,0.00,WeatherDisplay:10.37,2013-03-07 09:42:00,
2013-03-07 03:47:00,35.8,33.2,30.32,North,0,3.5,3.5,90,0.00,CLR,,0.00,WeatherDisplay:10.37,2013-03-07 09:47:00,
2013-03-07 03:52:00,35.5,33.1,30.32,North,8,5.8,5.8,91,0.00,CLR,,0.00,WeatherDisplay:10.37,2013-03-07 09:52:00,
2013-03-07 03:57:00,35.4,33.0,30.32,NNE,14,4.6,4.6,91,0.00,CLR,,0.00,WeatherDisplay:10.37,2013-03-07 09:57:00,
2013-03-07 04:02:00,35.2,33.1,30.32,NNE,13,5.1,5.1,92,0.00,CLR,,0.00,WeatherDisplay:10.37,2013-03-07 10:02:00,
2013-03-07 04:07:00,35.1,33.0,30.31,NNW,343,6.9,6.9,92,0.00,CLR,,0.00,WeatherDisplay:10.37,2013-03-07 10:07:00,
2013-03-07 04:12:00,35.0,32.9,30.31,North,7,5.8,5.8,92,0.00,CLR,,0.00,WeatherDisplay:10.37,2013-03-07 10:12:00,
2013-03-07 04:17:00,35.1,33.0,30.31,NNE,14,5.8,5.8,92,0.00,CLR,,0.00,WeatherDisplay:10.37,2013-03-07 10:17:00,
2013-03-07 04:22:00,35.0,32.9,30.31,NNE,14,6.9,6.9,92,0.00,CLR,,0.00,WeatherDisplay:10.37,2013-03-07 10:22:00,
2013-03-07 04:27:00,35.1,33.0,30.31,NNE,24,5.8,5.8,92,0.00,CLR,,0.00,WeatherDisplay:10.37,2013-03-07 10:27:00,
2013-03-07 04:32:00,35.1,33.0,30.31,North,11,4.6,4.6,92,0.00,CLR,,0.00,WeatherDisplay:10.37,2013-03-07 10:32:00,
2013-03-07 04:37:00,35.1,33.0,30.31,North,6,3.5,3.5,92,0.00,CLR,,0.00,WeatherDisplay:10.37,2013-03-07 10:37:00,
2013-03-07 04:42:00,35.0,32.9,30.31,North,11,5.5,5.5,92,0.00,CLR,,0.00,WeatherDisplay:10.37,2013-03-07 10:42:00,
2013-03-07 04:47:00,35.1,33.0,30.32,NNW,337,5.8,5.8,92,0.00,CLR,,0.00,WeatherDisplay:10.37,2013-03-07 10:47:00,
2013-03-07 04:52:00,35.0,32.9,30.32,North,357,5.8,5.8,92,0.00,CLR,,0.00,WeatherDisplay:10.37,2013-03-07 10:52:00,
2013-03-07 04:57:00,35.0,32.9,30.32,North,7,5.8,5.8,92,0.00,CLR,,0.00,WeatherDisplay:10.37,2013-03-07 10:57:00,
2013-03-07 05:02:00,35.1,32.7,30.32,NE,40,6.9,6.9,91,0.00,CLR,,0.00,WeatherDisplay:10.37,2013-03-07 11:02:00,
2013-03-07 05:07:00,35.0,32.6,30.32,NNE,21,6.9,6.9,91,0.00,CLR,,0.00,WeatherDisplay:10.37,2013-03-07 11:07:00,
2013-03-07 05:12:00,35.1,32.7,30.31,NNE,18,5.3,5.3,91,0.00,CLR,,0.00,WeatherDisplay:10.37,2013-03-07 11:12:00,
2013-03-07 05:17:00,35.1,32.7,30.31,North,7,5.8,5.8,91,0.00,CLR,,0.00,WeatherDisplay:10.37,2013-03-07 11:17:00,
2013-03-07 05:22:00,35.0,32.6,30.31,NNE,30,5.3,5.3,91,0.00,CLR,,0.00,WeatherDisplay:10.37,2013-03-07 11:22:00,
2013-03-07 05:27:00,35.0,32.6,30.31,NNE,27,5.8,5.8,91,0.00,CLR,,0.00,WeatherDisplay:10.37,2013-03-07 11:27:00,
2013-03-07 05:32:00,35.0,32.6,30.32,North,356,6.9,6.9,91,0.00,CLR,,0.00,WeatherDisplay:10.37,2013-03-07 11:32:00,
2013-03-07 05:37:00,34.8,32.4,30.32,NW,313,5.8,5.8,91,0.00,CLR,,0.00,WeatherDisplay:10.37,2013-03-07 11:37:00,
2013-03-07 05:43:00,34.7,32.3,30.32,North,7,5.8,5.8,91,0.00,CLR,,0.00,WeatherDisplay:10.37,2013-03-07 11:43:00,
2013-03-07 05:48:00,34.6,32.5,30.33,North,4,4.6,4.6,92,0.00,CLR,,0.00,WeatherDisplay:10.37,2013-03-07 11:48:00,
2013-03-07 05:53:00,34.4,32.3,30.32,NNE,16,3.5,3.5,92,0.00,CLR,,0.00,WeatherDisplay:10.37,2013-03-07 11:53:00,
2013-03-07 05:58:00,34.3,32.2,30.33,NNE,23,3.6,3.6,92,0.00,CLR,,0.00,WeatherDisplay:10.37,2013-03-07 11:58:00,
2013-03-07 06:03:00,34.3,32.2,30.33,NNE,21,2.3,2.3,92,0.00,CLR,,0.00,WeatherDisplay:10.37,2013-03-07 12:03:00,
2013-03-07 06:08:00,34.2,32.1,30.33,North,8,1.2,0.0,92,0.00,CLR,,0.00,WeatherDisplay:10.37,2013-03-07 12:08:00,
2013-03-07 06:13:00,34.2,32.1,30.33,North,8,0.0,0.0,92,0.00,CLR,,0.00,WeatherDisplay:10.37,2013-03-07 12:13:00,
2013-03-07 06:18:00,34.2,32.1,30.34,North,8,0.0,0.0,92,0.00,CLR,,0.00,WeatherDisplay:10.37,2013-03-07 12:18:00,
2013-03-07 06:23:00,34.2,32.1,30.34,North,8,0.0,0.0,92,0.00,CLR,,0.00,WeatherDisplay:10.37,2013-03-07 12:23:00,
2013-03-07 06:28:00,34.3,32.5,30.33,NE,38,3.3,3.3,93,0.00,CLR,,0.00,WeatherDisplay:10.37,2013-03-07 12:28:00,
2013-03-07 06:33:00,34.3,32.5,30.33,NE,42,3.5,3.5,93,0.00,CLR,,0.00,WeatherDisplay:10.37,2013-03-07 12:33:00,
2013-03-07 06:38:00,34.5,32.4,30.32,ENE,64,4.6,4.6,92,0.00,CLR,,0.00,WeatherDisplay:10.37,2013-03-07 12:38:00,
2013-03-07 06:43:00,34.9,32.8,30.33,NE,41,3.5,3.5,92,0.00,CLR,,0.00,WeatherDisplay:10.37,2013-03-07 12:43:00,
2013-03-07 06:49:00,35.3,32.9,30.33,NE,42,8.1,8.1,91,0.00,CLR,,0.00,WeatherDisplay:10.37,2013-03-07 12:49:00,
2013-03-07 06:54:00,35.7,33.1,30.33,ENE,61,6.9,6.9,90,0.00,CLR,,0.00,WeatherDisplay:10.37,2013-03-07 12:54:00,
2013-03-07 06:59:00,36.3,33.4,30.33,ENE,61,6.9,6.9,89,0.00,CLR,,0.00,WeatherDisplay:10.37,2013-03-07 12:59:00,
2013-03-07 07:04:00,36.6,33.4,30.34,NNW,347,9.2,9.2,88,0.00,CLR,,0.00,WeatherDisplay:10.37,2013-03-07 13:04:00,
2013-03-07 07:09:00,36.8,33.3,30.35,NW,323,5.8,5.8,87,0.00,CLR,,0.00,WeatherDisplay:10.37,2013-03-07 13:09:00,
2013-03-07 07:14:00,37.0,33.8,30.35,North,353,5.8,5.8,88,0.00,CLR,,0.00,WeatherDisplay:10.37,2013-03-07 13:14:00,
2013-03-07 07:19:00,37.2,34.0,30.35,NNE,24,6.9,6.9,88,0.00,CLR,,0.00,WeatherDisplay:10.37,2013-03-07 13:19:00,
2013-03-07 07:24:00,37.3,34.1,30.35,NNW,332,6.9,6.9,88,0.00,CLR,,0.00,WeatherDisplay:10.37,2013-03-07 13:24:00,
2013-03-07 07:29:00,37.6,34.1,30.35,North,7,8.1,8.1,87,0.00,CLR,,0.00,WeatherDisplay:10.37,2013-03-07 13:29:00,
2013-03-07 07:34:00,37.9,34.1,30.35,NE,56,8.1,8.1,86,0.00,CLR,,0.00,WeatherDisplay:10.37,2013-03-07 13:34:00,
2013-03-07 07:40:00,38.3,34.2,30.35,NNW,339,8.1,8.1,85,0.00,CLR,,0.00,WeatherDisplay:10.37,2013-03-07 13:40:00,
2013-03-07 07:45:00,38.8,34.7,30.35,NNE,25,5.8,5.8,85,0.00,CLR,,0.00,WeatherDisplay:10.37,2013-03-07 13:45:00,
2013-03-07 07:50:00,39.3,34.6,30.36,NNW,342,8.1,8.1,83,0.00,CLR,,0.00,WeatherDisplay:10.37,2013-03-07 13:50:00,
2013-03-07 07:55:00,39.8,34.1,30.36,NE,45,10.4,10.4,80,0.00,CLR,,0.00,WeatherDisplay:10.37,2013-03-07 13:55:00,
2013-03-07 08:00:00,40.1,34.1,30.36,NE,52,10.4,10.4,79,0.00,CLR,,0.00,WeatherDisplay:10.37,2013-03-07 14:00:00,
2013-03-07 08:05:00,40.4,34.1,30.36,North,7,9.2,9.2,78,0.00,CLR,,0.00,WeatherDisplay:10.37,2013-03-07 14:05:00,
2013-03-07 08:10:00,40.9,34.6,30.36,NNE,21,5.8,5.8,78,0.00,CLR,,0.00,WeatherDisplay:10.37,2013-03-07 14:10:00,
2013-03-07 08:15:00,41.7,34.7,30.36,NE,48,8.1,8.1,76,0.00,CLR,,0.00,WeatherDisplay:10.37,2013-03-07 14:15:00,
2013-03-07 08:20:00,41.8,34.5,30.36,NE,51,8.1,8.1,75,0.00,CLR,,0.00,WeatherDisplay:10.37,2013-03-07 14:20:00,
2013-03-07 08:25:00,41.8,33.8,30.36,NE,45,11.5,11.5,73,0.00,CLR,,0.00,WeatherDisplay:10.37,2013-03-07 14:25:00,
2013-03-07 08:30:00,42.0,33.6,30.36,NE,44,11.5,11.5,72,0.00,CLR,,0.00,WeatherDisplay:10.37,2013-03-07 14:30:00,
2013-03-07 08:35:00,42.4,34.0,30.37,NE,48,9.2,9.2,72,0.00,CLR,,0.00,WeatherDisplay:10.37,2013-03-07 14:35:00,
2013-03-07 08:40:00,42.9,34.1,30.37,ENE,73,8.1,8.1,71,0.00,CLR,,0.00,WeatherDisplay:10.37,2013-03-07 14:40:00,
2013-03-07 08:45:00,42.8,33.7,30.38,ENE,61,9.2,9.2,70,0.00,CLR,,0.00,WeatherDisplay:10.37,2013-03-07 14:45:00,
2013-03-07 08:50:00,43.2,34.1,30.38,NE,47,10.4,10.4,70,0.00,CLR,,0.00,WeatherDisplay:10.37,2013-03-07 14:50:00,
2013-03-07 08:55:00,43.8,34.6,30.38,NNW,346,11.5,11.5,70,0.00,CLR,,0.00,WeatherDisplay:10.37,2013-03-07 14:55:00,
2013-03-07 09:00:00,43.8,34.3,30.38,NE,35,7.6,7.6,69,0.00,CLR,,0.00,WeatherDisplay:10.37,2013-03-07 15:00:00,
2013-03-07 09:05:00,44.0,34.1,30.38,NNE,14,7.0,7.0,68,0.00,CLR,,0.00,WeatherDisplay:10.37,2013-03-07 15:05:00,
2013-03-07 09:10:00,44.4,34.1,30.38,NE,52,9.2,9.2,67,0.00,CLR,,0.00,WeatherDisplay:10.37,2013-03-07 15:10:00,
2013-03-07 09:15:00,45.0,33.9,30.38,NNE,14,10.4,10.4,65,0.00,CLR,,0.00,WeatherDisplay:10.37,2013-03-07 15:15:00,
2013-03-07 09:20:00,45.1,34.0,30.38,NE,37,10.4,10.4,65,0.00,CLR,,0.00,WeatherDisplay:10.37,2013-03-07 15:20:00,
2013-03-07 09:25:00,45.5,34.4,30.38,NE,48,6.9,6.9,65,0.00,CLR,,0.00,WeatherDisplay:10.37,2013-03-07 15:25:00,
2013-03-07 09:30:00,46.1,34.6,30.38,NE,47,5.0,5.0,64,0.00,CLR,,0.00,WeatherDisplay:10.37,2013-03-07 15:30:00,
2013-03-07 09:36:00,47.1,34.3,30.38,North,6,6.9,6.9,61,0.00,CLR,,0.00,WeatherDisplay:10.37,2013-03-07 15:36:00,
2013-03-07 09:41:00,47.1,34.3,30.38,NE,34,4.6,4.6,61,0.00,CLR,,0.00,WeatherDisplay:10.37,2013-03-07 15:41:00,
2013-03-07 09:46:00,47.0,34.2,30.38,NE,45,6.9,6.9,61,0.00,CLR,,0.00,WeatherDisplay:10.37,2013-03-07 15:46:00,
2013-03-07 09:51:00,47.6,34.8,30.38,WNW,287,4.4,4.4,61,0.00,CLR,,0.00,WeatherDisplay:10.37,2013-03-07 15:51:00,
2013-03-07 09:56:00,48.3,34.6,30.38,NNE,30,5.8,5.8,59,0.00,CLR,,0.00,WeatherDisplay:10.37,2013-03-07 15:56:00,
2013-03-07 10:01:00,48.7,34.6,30.39,NNW,337,8.1,8.1,58,0.00,CLR,,0.00,WeatherDisplay:10.37,2013-03-07 16:01:00,
2013-03-07 10:06:00,49.1,35.4,30.39,North,353,6.5,6.5,59,0.00,CLR,,0.00,WeatherDisplay:10.37,2013-03-07 16:06:00,
2013-03-07 10:11:00,49.1,35.4,30.39,NW,315,1.2,0.0,59,0.00,CLR,,0.00,WeatherDisplay:10.37,2013-03-07 16:11:00,
2013-03-07 10:16:00,49.3,35.1,30.38,NE,40,6.2,6.2,58,0.00,CLR,,0.00,WeatherDisplay:10.37,2013-03-07 16:16:00,
2013-03-07 10:21:00,49.3,34.3,30.38,NNE,13,3.5,3.5,56,0.00,CLR,,0.00,WeatherDisplay:10.37,2013-03-07 16:21:00,
2013-03-07 10:26:00,49.5,34.4,30.38,NNW,333,0.0,0.0,56,0.00,CLR,,0.00,WeatherDisplay:10.37,2013-03-07 16:26:00,
2013-03-07 10:31:00,49.9,34.8,30.39,NW,306,3.5,3.5,56,0.00,CLR,,0.00,WeatherDisplay:10.37,2013-03-07 16:31:00,
2013-03-07 10:36:00,50.4,35.3,30.38,West,265,4.6,4.6,56,0.00,CLR,,0.00,WeatherDisplay:10.37,2013-03-07 16:36:00,
2013-03-07 10:41:00,51.2,36.0,30.38,NNW,337,6.2,6.2,56,0.00,CLR,,0.00,WeatherDisplay:10.37,2013-03-07 16:41:00,
2013-03-07 10:46:00,51.3,35.7,30.38,WSW,247,6.9,6.9,55,0.00,CLR,,0.00,WeatherDisplay:10.37,2013-03-07 16:46:00,
2013-03-07 10:51:00,51.5,35.9,30.38,NW,312,0.0,0.0,55,0.00,CLR,,0.00,WeatherDisplay:10.37,2013-03-07 16:51:00,
2013-03-07 10:56:00,52.1,35.5,30.38,North,7,7.0,7.0,53,0.00,CLR,,0.00,WeatherDisplay:10.37,2013-03-07 16:56:00,
2013-03-07 11:01:00,52.7,34.6,30.38,NW,318,8.1,8.1,50,0.00,CLR,,0.00,WeatherDisplay:10.37,2013-03-07 17:01:00,
2013-03-07 11:06:00,52.9,33.7,30.37,West,270,4.6,4.9,48,0.00,CLR,,0.00,WeatherDisplay:10.37,2013-03-07 17:06:00,
2013-03-07 11:11:00,53.1,33.9,30.37,NNE,24,8.1,8.1,48,0.00,CLR,,0.00,WeatherDisplay:10.37,2013-03-07 17:11:00,
2013-03-07 11:16:00,53.4,33.1,30.37,North,7,8.1,8.1,46,0.00,CLR,,0.00,WeatherDisplay:10.37,2013-03-07 17:16:00,
2013-03-07 11:21:00,53.9,35.2,30.37,NNE,17,8.1,8.1,49,0.00,CLR,,0.00,WeatherDisplay:10.37,2013-03-07 17:21:00,
2013-03-07 11:26:00,54.1,33.8,30.37,NE,37,8.1,8.1,46,0.00,CLR,,0.00,WeatherDisplay:10.37,2013-03-07 17:26:00,
2013-03-07 11:31:00,54.3,35.0,30.37,West,275,6.9,6.9,48,0.00,CLR,,0.00,WeatherDisplay:10.37,2013-03-07 17:31:00,
2013-03-07 11:36:00,54.9,35.0,30.37,WNW,294,6.3,6.3,47,0.00,CLR,,0.00,WeatherDisplay:10.37,2013-03-07 17:36:00,
2013-03-07 11:41:00,55.2,35.3,30.37,NNE,14,6.5,6.5,47,0.00,CLR,,0.00,WeatherDisplay:10.37,2013-03-07 17:41:00,
2013-03-07 11:46:00,55.4,35.5,30.36,WSW,251,4.6,4.6,47,0.00,CLR,,0.00,WeatherDisplay:10.37,2013-03-07 17:46:00,
2013-03-07 11:51:00,55.7,33.5,30.36,North,353,8.1,8.1,43,0.00,CLR,,0.00,WeatherDisplay:10.37,2013-03-07 17:51:00,
2013-03-07 11:56:00,55.9,34.3,30.35,NE,56,6.7,6.7,44,0.00,CLR,,0.00,WeatherDisplay:10.37,2013-03-07 17:56:00,
2013-03-07 12:01:00,56.3,33.5,30.35,NNE,24,8.1,8.1,42,0.00,CLR,,0.00,WeatherDisplay:10.37,2013-03-07 18:01:00,
2013-03-07 12:06:00,56.4,34.7,30.35,NNW,332,3.5,3.5,44,0.00,CLR,,0.00,WeatherDisplay:10.37,2013-03-07 18:06:00,
2013-03-07 12:11:00,56.7,33.8,30.34,North,359,4.6,4.6,42,0.00,CLR,,0.00,WeatherDisplay:10.37,2013-03-07 18:11:00,
2013-03-07 12:16:00,57.0,34.7,30.34,SSW,202,2.3,0.0,43,0.00,CLR,,0.00,WeatherDisplay:10.37,2013-03-07 18:16:00,
2013-03-07 12:21:00,57.9,34.3,30.34,WNW,285,7.8,7.8,41,0.00,CLR,,0.00,WeatherDisplay:10.37,2013-03-07 18:21:00,
2013-03-07 12:26:00,57.7,34.7,30.34,WNW,301,7.8,7.8,42,0.00,CLR,,0.00,WeatherDisplay:10.37,2013-03-07 18:26:00,
2013-03-07 12:31:00,57.5,33.3,30.34,East,82,8.1,8.1,40,0.00,CLR,,0.00,WeatherDisplay:10.37,2013-03-07 18:31:00,
2013-03-07 12:36:00,57.7,34.1,30.34,ESE,102,4.6,4.6,41,0.00,CLR,,0.00,WeatherDisplay:10.37,2013-03-07 18:36:00,
2013-03-07 12:41:00,58.0,34.4,30.33,NW,322,5.8,5.8,41,0.00,CLR,,0.00,WeatherDisplay:10.37,2013-03-07 18:41:00,
2013-03-07 12:46:00,58.1,34.5,30.33,NNE,13,5.8,5.8,41,0.00,CLR,,0.00,WeatherDisplay:10.37,2013-03-07 18:46:00,
2013-03-07 12:51:00,58.5,34.2,30.32,NE,34,5.0,5.0,40,0.00,CLR,,0.00,WeatherDisplay:10.37,2013-03-07 18:51:00,
2013-03-07 12:56:00,58.9,34.0,30.33,North,8,11.5,11.5,39,0.00,CLR,,0.00,WeatherDisplay:10.37,2013-03-07 18:56:00,
2013-03-07 13:01:00,58.9,34.0,30.32,NW,304,5.8,5.8,39,0.00,CLR,,0.00,WeatherDisplay:10.37,2013-03-07 19:01:00,
2013-03-07 13:06:00,59.1,34.1,30.32,NW,318,0.0,0.7,39,0.00,CLR,,0.00,WeatherDisplay:10.37,2013-03-07 19:06:00,
2013-03-07 13:11:00,59.8,34.1,30.31,ENE,66,5.8,5.8,38,0.00,CLR,,0.00,WeatherDisplay:10.37,2013-03-07 19:11:00,
2013-03-07 13:16:00,60.0,33.6,30.31,NNW,333,6.8,6.8,37,0.00,CLR,,0.00,WeatherDisplay:10.37,2013-03-07 19:16:00,
2013-03-07 13:21:00,60.9,34.4,30.30,NW,323,6.9,6.9,37,0.00,CLR,,0.00,WeatherDisplay:10.37,2013-03-07 19:21:00,
2013-03-07 13:27:00,60.6,33.5,30.30,NNW,343,9.2,9.2,36,0.00,CLR,,0.00,WeatherDisplay:10.37,2013-03-07 19:27:00,
2013-03-07 13:32:00,60.2,34.5,30.30,North,1,10.4,10.4,38,0.00,CLR,,0.00,WeatherDisplay:10.37,2013-03-07 19:32:00,
2013-03-07 13:37:00,60.2,34.5,30.30,North,10,8.1,8.1,38,0.00,CLR,,0.00,WeatherDisplay:10.37,2013-03-07 19:37:00,
2013-03-07 13:42:00,60.4,34.0,30.30,West,271,5.8,5.8,37,0.00,CLR,,0.00,WeatherDisplay:10.37,2013-03-07 19:42:00,
2013-03-07 13:47:00,60.5,34.7,30.30,NW,319,4.9,4.9,38,0.00,CLR,,0.00,WeatherDisplay:10.37,2013-03-07 19:47:00,
2013-03-07 13:52:00,60.9,33.7,30.30,North,0,10.4,10.4,36,0.00,CLR,,0.00,WeatherDisplay:10.37,2013-03-07 19:52:00,
2013-03-07 13:57:00,61.2,34.7,30.30,NW,312,10.9,10.9,37,0.00,CLR,,0.00,WeatherDisplay:10.37,2013-03-07 19:57:00,
2013-03-07 14:02:00,61.4,35.5,30.29,North,3,4.2,4.2,38,0.00,CLR,,0.00,WeatherDisplay:10.37,2013-03-07 20:02:00,
2013-03-07 14:07:00,61.5,35.0,30.29,SSW,208,2.3,2.3,37,0.00,CLR,,0.00,WeatherDisplay:10.37,2013-03-07 20:07:00,
2013-03-07 14:12:00,61.9,34.6,30.29,North,360,8.4,8.4,36,0.00,CLR,,0.00,WeatherDisplay:10.37,2013-03-07 20:12:00,
2013-03-07 14:17:00,61.9,34.6,30.29,NNE,28,6.7,6.7,36,0.00,CLR,,0.00,WeatherDisplay:10.37,2013-03-07 20:17:00,
2013-03-07 14:23:00,62.3,33.6,30.29,NNW,344,9.3,9.3,34,0.00,CLR,,0.00,WeatherDisplay:10.37,2013-03-07 20:23:00,
2013-03-07 14:28:00,62.4,34.4,30.29,North,356,5.8,5.8,35,0.00,CLR,,0.00,WeatherDisplay:10.37,2013-03-07 20:28:00,
2013-03-07 14:33:00,62.5,35.2,30.29,South,174,1.2,1.2,36,0.00,CLR,,0.00,WeatherDisplay:10.37,2013-03-07 20:33:00,
2013-03-07 14:38:00,62.9,35.5,30.29,WNW,298,8.1,8.1,36,0.00,CLR,,0.00,WeatherDisplay:10.37,2013-03-07 20:38:00,
2013-03-07 14:43:00,63.1,35.7,30.29,North,349,6.9,6.9,36,0.00,CLR,,0.00,WeatherDisplay:10.37,2013-03-07 20:43:00,
2013-03-07 14:48:00,63.1,35.7,30.29,NNW,332,5.8,5.8,36,0.00,CLR,,0.00,WeatherDisplay:10.37,2013-03-07 20:48:00,
2013-03-07 14:53:00,63.4,35.2,30.28,North,354,8.1,8.1,35,0.00,CLR,,0.00,WeatherDisplay:10.37,2013-03-07 20:53:00,
2013-03-07 14:58:00,63.2,34.3,30.28,WNW,302,11.5,11.5,34,0.00,CLR,,0.00,WeatherDisplay:10.37,2013-03-07 20:58:00,
2013-03-07 15:03:00,62.9,34.8,30.28,North,349,10.4,10.4,35,0.00,CLR,,0.00,WeatherDisplay:10.37,2013-03-07 21:03:00,
2013-03-07 15:08:00,62.9,34.1,30.28,West,272,9.2,9.2,34,0.00,CLR,,0.00,WeatherDisplay:10.37,2013-03-07 21:08:00,
2013-03-07 15:13:00,63.1,35.7,30.28,ESE,114,2.9,2.9,36,0.00,CLR,,0.00,WeatherDisplay:10.37,2013-03-07 21:13:00,
2013-03-07 15:18:00,62.2,44.9,30.28,SW,227,8.1,8.1,53,0.00,CLR,,0.00,WeatherDisplay:10.37,2013-03-07 21:18:00,
2013-03-07 15:23:00,61.2,44.4,30.28,SW,219,8.1,8.1,54,0.00,CLR,,0.00,WeatherDisplay:10.37,2013-03-07 21:23:00,
2013-03-07 15:28:00,61.2,44.4,30.28,WSW,237,8.1,8.1,54,0.00,CLR,,0.00,WeatherDisplay:10.37,2013-03-07 21:28:00,
2013-03-07 15:33:00,61.3,43.0,30.29,SW,232,5.8,5.8,51,0.00,CLR,,0.00,WeatherDisplay:10.37,2013-03-07 21:33:00,
2013-03-07 15:38:00,60.5,44.2,30.28,SW,223,9.2,9.2,55,0.00,CLR,,0.00,WeatherDisplay:10.37,2013-03-07 21:38:00,
2013-03-07 15:43:00,60.5,43.8,30.28,SW,223,9.1,9.1,54,0.00,CLR,,0.00,WeatherDisplay:10.37,2013-03-07 21:43:00,
2013-03-07 15:48:00,60.7,43.5,30.28,SW,230,9.2,9.2,53,0.00,CLR,,0.00,WeatherDisplay:10.37,2013-03-07 21:48:00,
2013-03-07 15:53:00,59.8,43.1,30.28,SW,234,8.1,8.1,54,0.00,CLR,,0.00,WeatherDisplay:10.37,2013-03-07 21:53:00,
2013-03-07 15:58:00,59.5,43.3,30.28,WSW,239,8.1,8.1,55,0.00,CLR,,0.00,WeatherDisplay:10.37,2013-03-07 21:58:00,
2013-03-07 16:03:00,59.5,43.8,30.28,WSW,253,3.7,3.7,56,0.00,CLR,,0.00,WeatherDisplay:10.37,2013-03-07 22:03:00,
2013-03-07 16:09:00,59.4,44.6,30.29,West,274,8.1,8.1,58,0.00,CLR,,0.00,WeatherDisplay:10.37,2013-03-07 22:09:00,
2013-03-07 16:14:00,59.0,44.2,30.29,SSW,208,8.1,8.1,58,0.00,CLR,,0.00,WeatherDisplay:10.37,2013-03-07 22:14:00,
2013-03-07 16:19:00,58.8,44.0,30.28,West,277,6.9,6.9,58,0.00,CLR,,0.00,WeatherDisplay:10.37,2013-03-07 22:19:00,
2013-03-07 16:24:00,58.6,44.3,30.28,WSW,258,6.2,6.8,59,0.00,CLR,,0.00,WeatherDisplay:10.37,2013-03-07 22:24:00,
2013-03-07 16:29:00,58.1,44.7,30.29,WSW,247,9.2,9.2,61,0.00,CLR,,0.00,WeatherDisplay:10.37,2013-03-07 22:29:00,
2013-03-07 16:34:00,58.0,44.6,30.29,SW,229,8.1,8.1,61,0.00,CLR,,0.00,WeatherDisplay:10.37,2013-03-07 22:34:00,
2013-03-07 16:39:00,57.9,44.5,30.29,West,264,4.6,4.6,61,0.00,CLR,,0.00,WeatherDisplay:10.37,2013-03-07 22:39:00,
2013-03-07 16:44:00,57.4,44.5,30.29,West,264,6.9,6.9,62,0.00,CLR,,0.00,WeatherDisplay:10.37,2013-03-07 22:44:00,
2013-03-07 16:49:00,56.9,44.4,30.29,WSW,251,6.9,6.9,63,0.00,CLR,,0.00,WeatherDisplay:10.37,2013-03-07 22:49:00,
2013-03-07 16:54:00,56.8,44.7,30.29,West,271,6.4,6.4,64,0.00,CLR,,0.00,WeatherDisplay:10.37,2013-03-07 22:54:00,
2013-03-07 16:59:00,56.6,45.0,30.29,WSW,251,6.9,6.9,65,0.00,CLR,,0.00,WeatherDisplay:10.37,2013-03-07 22:59:00,
2013-03-07 17:04:00,56.3,45.1,30.29,WSW,239,6.9,6.9,66,0.00,CLR,,0.00,WeatherDisplay:10.37,2013-03-07 23:04:00,
2013-03-07 17:09:00,56.0,45.2,30.29,WSW,258,10.4,10.4,67,0.00,CLR,,0.00,WeatherDisplay:10.37,2013-03-07 23:09:00,
2013-03-07 17:14:00,55.7,45.3,30.29,West,261,7.3,7.3,68,0.00,CLR,,0.00,WeatherDisplay:10.37,2013-03-07 23:14:00,
2013-03-07 17:19:00,55.5,45.1,30.29,WNW,295,4.6,4.6,68,0.00,CLR,,0.00,WeatherDisplay:10.37,2013-03-07 23:19:00,
2013-03-07 17:24:00,55.3,45.3,30.29,SSW,213,5.8,5.8,69,0.00,CLR,,0.00,WeatherDisplay:10.37,2013-03-07 23:24:00,
2013-03-07 17:29:00,55.0,45.4,30.29,West,260,5.3,5.3,70,0.00,CLR,,0.00,WeatherDisplay:10.37,2013-03-07 23:29:00,
2013-03-07 17:34:00,54.8,45.6,30.29,SSW,213,5.8,5.8,71,0.00,CLR,,0.00,WeatherDisplay:10.37,2013-03-07 23:34:00,
2013-03-07 17:39:00,54.6,45.4,30.30,SW,234,3.5,3.5,71,0.00,CLR,,0.00,WeatherDisplay:10.37,2013-03-07 23:39:00,
2013-03-07 17:44:00,54.4,45.6,30.30,WSW,237,4.6,4.6,72,0.00,CLR,,0.00,WeatherDisplay:10.37,2013-03-07 23:44:00,
2013-03-07 17:49:00,54.2,45.7,30.30,WSW,256,5.8,5.8,73,0.00,CLR,,0.00,WeatherDisplay:10.37,2013-03-07 23:49:00,
2013-03-07 17:54:00,53.9,45.4,30.30,WSW,241,4.6,4.6,73,0.00,CLR,,0.00,WeatherDisplay:10.37,2013-03-07 23:54:00,
2013-03-07 17:59:00,53.8,45.7,30.30,WSW,253,3.9,3.9,74,0.00,CLR,,0.00,WeatherDisplay:10.37,2013-03-07 23:59:00,
2013-03-07 18:04:00,53.5,45.8,30.30,West,264,4.6,4.6,75,0.00,CLR,,0.00,WeatherDisplay:10.37,2013-03-08 00:04:00,
2013-03-07 18:09:00,53.4,46.0,30.30,WSW,256,5.8,5.8,76,0.00,CLR,,0.00,WeatherDisplay:10.37,2013-03-08 00:09:00,
2013-03-07 18:14:00,53.2,46.2,30.30,West,272,4.6,4.6,77,0.00,CLR,,0.00,WeatherDisplay:10.37,2013-03-08 00:14:00,
2013-03-07 18:19:00,53.1,46.1,30.30,West,265,3.5,3.5,77,0.00,CLR,,0.00,WeatherDisplay:10.37,2013-03-08 00:19:00,
2013-03-07 18:24:00,52.9,46.2,30.31,West,263,4.6,4.6,78,0.00,CLR,,0.00,WeatherDisplay:10.37,2013-03-08 00:24:00,
2013-03-07 18:29:00,52.7,46.4,30.31,West,268,4.6,4.6,79,0.00,CLR,,0.00,WeatherDisplay:10.37,2013-03-08 00:29:00,
2013-03-07 18:34:00,52.4,46.4,30.32,WSW,247,5.8,5.8,80,0.00,CLR,,0.00,WeatherDisplay:10.37,2013-03-08 00:34:00,
2013-03-07 18:39:00,52.2,46.2,30.32,WSW,248,4.6,4.6,80,0.00,CLR,,0.00,WeatherDisplay:10.37,2013-03-08 00:39:00,
2013-03-07 18:44:00,52.1,46.1,30.31,SW,232,2.3,2.3,80,0.00,CLR,,0.00,WeatherDisplay:10.37,2013-03-08 00:44:00,
2013-03-07 18:49:00,51.9,45.9,30.31,West,263,4.6,4.6,80,0.00,CLR,,0.00,WeatherDisplay:10.37,2013-03-08 00:49:00,
2013-03-07 18:55:00,51.7,46.1,30.31,WSW,248,4.7,4.7,81,0.00,CLR,,0.00,WeatherDisplay:10.37,2013-03-08 00:55:00,
2013-03-07 19:00:00,51.5,45.9,30.31,West,267,4.6,4.6,81,0.00,CLR,,0.00,WeatherDisplay:10.37,2013-03-08 01:00:00,
2013-03-07 19:05:00,51.2,45.6,30.31,WSW,251,4.6,4.6,81,0.00,CLR,,0.00,WeatherDisplay:10.37,2013-03-08 01:05:00,
2013-03-07 19:10:00,51.0,45.7,30.31,SW,234,4.6,4.6,82,0.00,CLR,,0.00,WeatherDisplay:10.37,2013-03-08 01:10:00,
2013-03-07 19:15:00,50.7,45.4,30.31,SW,232,4.6,4.6,82,0.00,CLR,,0.00,WeatherDisplay:10.37,2013-03-08 01:15:00,
2013-03-07 19:20:00,50.7,45.4,30.31,West,263,4.6,4.6,82,0.00,CLR,,0.00,WeatherDisplay:10.37,2013-03-08 01:20:00,
2013-03-07 19:25:00,50.6,45.3,30.31,West,274,4.6,4.6,82,0.00,CLR,,0.00,WeatherDisplay:10.37,2013-03-08 01:25:00,
2013-03-07 19:30:00,50.4,45.4,30.31,WSW,254,4.6,4.6,83,0.00,CLR,,0.00,WeatherDisplay:10.37,2013-03-08 01:30:00,
2013-03-07 19:35:00,50.2,45.2,30.31,West,275,5.8,5.8,83,0.00,CLR,,0.00,WeatherDisplay:10.37,2013-03-08 01:35:00,
2013-03-07 19:40:00,50.0,45.4,30.31,WNW,287,5.8,5.8,84,0.00,CLR,,0.00,WeatherDisplay:10.37,2013-03-08 01:40:00,
2013-03-07 19:45:00,49.9,45.3,30.31,WNW,287,5.8,5.8,84,0.00,CLR,,0.00,WeatherDisplay:10.37,2013-03-08 01:45:00,
2013-03-07 19:50:00,49.9,45.3,30.31,West,270,4.6,4.6,84,0.00,CLR,,0.00,WeatherDisplay:10.37,2013-03-08 01:50:00,
2013-03-07 19:55:00,49.7,45.1,30.31,West,263,3.5,3.5,84,0.00,CLR,,0.00,WeatherDisplay:10.37,2013-03-08 01:55:00,
2013-03-07 20:00:00,49.5,44.9,30.31,WSW,257,4.6,4.6,84,0.00,CLR,,0.00,WeatherDisplay:10.37,2013-03-08 02:00:00,
2013-03-07 20:05:00,49.4,45.1,30.31,West,281,3.5,3.5,85,0.00,CLR,,0.00,WeatherDisplay:10.37,2013-03-08 02:05:00,
2013-03-07 20:10:00,49.2,44.9,30.31,West,261,3.5,3.5,85,0.00,CLR,,0.00,WeatherDisplay:10.37,2013-03-08 02:10:00,
2013-03-07 20:15:00,49.1,44.8,30.31,WNW,284,3.5,3.5,85,0.00,CLR,,0.00,WeatherDisplay:10.37,2013-03-08 02:15:00,
2013-03-07 20:20:00,49.0,44.7,30.31,West,261,4.6,4.6,85,0.00,CLR,,0.00,WeatherDisplay:10.37,2013-03-08 02:20:00,
2013-03-07 20:25:00,48.9,44.6,30.31,West,281,3.5,3.5,85,0.00,CLR,,0.00,WeatherDisplay:10.37,2013-03-08 02:25:00,
2013-03-07 20:30:00,48.7,44.4,30.31,West,265,2.3,2.3,85,0.00,CLR,,0.00,WeatherDisplay:10.37,2013-03-08 02:30:00,
2013-03-07 20:35:00,48.5,44.5,30.31,West,271,2.5,2.5,86,0.00,CLR,,0.00,WeatherDisplay:10.37,2013-03-08 02:35:00,
2013-03-07 20:40:00,48.4,44.4,30.31,West,270,3.5,3.5,86,0.00,CLR,,0.00,WeatherDisplay:10.37,2013-03-08 02:40:00,
2013-03-07 20:45:00,48.1,44.4,30.32,West,281,3.5,3.5,87,0.00,CLR,,0.00,WeatherDisplay:10.37,2013-03-08 02:45:00,
2013-03-07 20:50:00,48.0,44.3,30.32,West,272,3.5,3.5,87,0.00,CLR,,0.00,WeatherDisplay:10.37,2013-03-08 02:50:00,
2013-03-07 20:56:00,47.8,44.4,30.32,West,268,2.3,2.3,88,0.00,CLR,,0.00,WeatherDisplay:10.37,2013-03-08 02:56:00,
2013-03-07 21:01:00,47.6,44.2,30.32,WNW,294,2.5,2.5,88,0.00,CLR,,0.00,WeatherDisplay:10.37,2013-03-08 03:01:00,
2013-03-07 21:06:00,47.4,44.0,30.31,WNW,294,2.3,2.3,88,0.00,CLR,,0.00,WeatherDisplay:10.37,2013-03-08 03:06:00,
2013-03-07 21:11:00,47.2,44.1,30.31,WNW,301,2.3,2.3,89,0.00,CLR,,0.00,WeatherDisplay:10.37,2013-03-08 03:11:00,
2013-03-07 21:16:00,47.3,44.2,30.32,WNW,284,2.5,2.5,89,0.00,CLR,,0.00,WeatherDisplay:10.37,2013-03-08 03:16:00,
2013-03-07 21:21:00,47.4,44.3,30.32,WNW,284,2.8,2.8,89,0.00,CLR,,0.00,WeatherDisplay:10.37,2013-03-08 03:21:00,
2013-03-07 21:26:00,47.4,44.3,30.32,West,277,3.5,3.5,89,0.00,CLR,,0.00,WeatherDisplay:10.37,2013-03-08 03:26:00,
2013-03-07 21:31:00,47.4,44.6,30.32,West,277,3.5,3.5,90,0.00,CLR,,0.00,WeatherDisplay:10.37,2013-03-08 03:31:00,
2013-03-07 21:36:00,47.4,44.3,30.32,West,280,3.9,3.9,89,0.00,CLR,,0.00,WeatherDisplay:10.37,2013-03-08 03:36:00,
2013-03-07 21:41:00,47.5,44.4,30.32,WNW,296,3.5,3.5,89,0.00,CLR,,0.00,WeatherDisplay:10.37,2013-03-08 03:41:00,
2013-03-07 21:46:00,47.4,44.6,30.32,WNW,282,4.6,4.6,90,0.00,CLR,,0.00,WeatherDisplay:10.37,2013-03-08 03:46:00,
2013-03-07 21:51:00,47.6,44.5,30.32,WNW,292,4.8,4.8,89,0.00,CLR,,0.00,WeatherDisplay:10.37,2013-03-08 03:51:00,
2013-03-07 21:56:00,47.7,44.6,30.32,West,268,3.5,3.5,89,0.00,CLR,,0.00,WeatherDisplay:10.37,2013-03-08 03:56:00,
2013-03-07 22:01:00,47.7,44.6,30.32,West,268,3.5,3.5,89,0.00,CLR,,0.00,WeatherDisplay:10.37,2013-03-08 04:01:00,
2013-03-07 22:06:00,47.7,44.6,30.32,WSW,258,2.3,2.3,89,0.00,CLR,,0.00,WeatherDisplay:10.37,2013-03-08 04:06:00,
2013-03-07 22:11:00,47.6,44.2,30.31,West,263,1.2,1.2,88,0.00,CLR,,0.00,WeatherDisplay:10.37,2013-03-08 04:11:00,
2013-03-07 22:16:00,47.3,43.9,30.31,SW,236,0.0,0.0,88,0.00,CLR,,0.00,WeatherDisplay:10.37,2013-03-08 04:16:00,
2013-03-07 22:21:00,47.1,43.7,30.31,SW,236,0.0,0.0,88,0.00,CLR,,0.00,WeatherDisplay:10.37,2013-03-08 04:21:00,
2013-03-07 22:26:00,46.6,43.5,30.32,SW,236,0.0,0.0,89,0.00,CLR,,0.00,WeatherDisplay:10.37,2013-03-08 04:26:00,
2013-03-07 22:31:00,46.0,42.9,30.31,SW,236,0.0,0.0,89,0.00,CLR,,0.00,WeatherDisplay:10.37,2013-03-08 04:31:00,
2013-03-07 22:36:00,45.6,42.5,30.32,SW,236,0.0,0.0,89,0.00,CLR,,0.00,WeatherDisplay:10.37,2013-03-08 04:36:00,
2013-03-07 22:41:00,45.2,42.2,30.32,SW,236,0.0,0.0,89,0.00,CLR,,0.00,WeatherDisplay:10.37,2013-03-08 04:41:00,
2013-03-07 22:47:00,44.7,41.9,30.32,SW,236,0.0,0.0,90,0.00,CLR,,0.00,WeatherDisplay:10.37,2013-03-08 04:47:00,
2013-03-07 22:52:00,44.3,41.6,30.31,SW,236,0.0,0.0,90,0.00,CLR,,0.00,WeatherDisplay:10.37,2013-03-08 04:52:00,
2013-03-07 22:57:00,43.9,41.4,30.31,SW,236,0.0,0.0,91,0.00,CLR,,0.00,WeatherDisplay:10.37,2013-03-08 04:57:00,
2013-03-07 23:00:00,43.7,41.5,30.31,SW,236,0.0,0.0,92,0.00,CLR,,0.00,WeatherDisplay:10.37,2013-03-08 05:00:00,
2013-03-07 23:02:00,43.6,41.4,30.31,SW,236,0.0,0.0,92,0.00,CLR,,0.00,WeatherDisplay:10.37,2013-03-08 05:02:00,
2013-03-07 23:07:00,43.1,40.9,30.31,SW,236,0.0,0.0,92,0.00,CLR,,0.00,WeatherDisplay:10.37,2013-03-08 05:07:00,
2013-03-07 23:12:00,42.8,40.9,30.31,SW,236,0.0,0.0,93,0.00,CLR,,0.00,WeatherDisplay:10.37,2013-03-08 05:12:00,
2013-03-07 23:17:00,42.5,40.9,30.31,NE,47,0.0,0.0,94,0.00,CLR,,0.00,WeatherDisplay:10.37,2013-03-08 05:17:00,
2013-03-07 23:22:00,42.4,41.1,30.31,NE,47,0.0,0.0,95,0.00,CLR,,0.00,WeatherDisplay:10.37,2013-03-08 05:22:00,
2013-03-07 23:27:00,42.5,41.2,30.31,NE,47,0.0,0.0,95,0.00,CLR,,0.00,WeatherDisplay:10.37,2013-03-08 05:27:00,
2013-03-07 23:32:00,42.5,41.2,30.31,NE,47,0.0,0.0,95,0.00,CLR,,0.00,WeatherDisplay:10.37,2013-03-08 05:32:00,
2013-03-07 23:37:00,42.3,41.0,30.32,NE,47,0.0,0.0,95,0.00,CLR,,0.00,WeatherDisplay:10.37,2013-03-08 05:37:00,
2013-03-07 23:42:00,42.3,41.0,30.32,NNE,20,1.2,1.2,95,0.00,CLR,,0.00,WeatherDisplay:10.37,2013-03-08 05:42:00,
2013-03-07 23:47:00,42.1,40.8,30.32,NNE,25,0.0,0.0,95,0.00,CLR,,0.00,WeatherDisplay:10.37,2013-03-08 05:47:00,
2013-03-07 23:52:00,41.9,40.6,30.32,NNE,25,0.0,0.0,95,0.00,CLR,,0.00,WeatherDisplay:10.37,2013-03-08 05:52:00,
2013-03-07 23:57:00,41.8,40.7,30.32,NNE,25,0.0,0.0,96,0.00,CLR,,0.00,WeatherDisplay:10.37,2013-03-08 05:57:00,